sensor_id;sensor_type;location;lat;lon;timestamp;P1;durP1;ratioP1;P2;durP2;ratioP2
14052;SDS011;7101;51.600;7.310;2023-04-06T00:00:53;20.70;;;14.70;;
14052;SDS011;7101;51.600;7.310;2023-04-06T00:03:21;27.92;;;14.70;;
14052;SDS011;7101;51.600;7.310;2023-04-06T00:05:49;21.48;;;14.52;;
14052;SDS011;7101;51.600;7.310;2023-04-06T00:08:16;21.83;;;14.60;;
14052;SDS011;7101;51.600;7.310;2023-04-06T00:10:43;21.45;;;15.02;;
14052;SDS011;7101;51.600;7.310;2023-04-06T00:13:10;18.13;;;13.35;;
14052;SDS011;7101;51.600;7.310;2023-04-06T00:15:37;24.75;;;13.88;;
14052;SDS011;7101;51.600;7.310;2023-04-06T00:18:04;19.75;;;13.70;;
14052;SDS011;7101;51.600;7.310;2023-04-06T00:20:32;20.70;;;13.48;;
14052;SDS011;7101;51.600;7.310;2023-04-06T00:23:00;19.40;;;13.15;;
14052;SDS011;7101;51.600;7.310;2023-04-06T00:25:27;19.65;;;12.57;;
14052;SDS011;7101;51.600;7.310;2023-04-06T00:27:55;19.63;;;13.18;;
14052;SDS011;7101;51.600;7.310;2023-04-06T00:30:22;18.40;;;11.85;;
14052;SDS011;7101;51.600;7.310;2023-04-06T00:32:50;17.77;;;12.25;;
14052;SDS011;7101;51.600;7.310;2023-04-06T00:35:17;17.63;;;12.05;;
14052;SDS011;7101;51.600;7.310;2023-04-06T00:37:45;17.25;;;11.98;;
14052;SDS011;7101;51.600;7.310;2023-04-06T00:40:14;19.65;;;12.55;;
14052;SDS011;7101;51.600;7.310;2023-04-06T00:42:42;16.20;;;11.52;;
14052;SDS011;7101;51.600;7.310;2023-04-06T00:45:09;19.58;;;11.63;;
14052;SDS011;7101;51.600;7.310;2023-04-06T00:47:37;17.25;;;12.75;;
14052;SDS011;7101;51.600;7.310;2023-04-06T00:50:04;16.98;;;10.85;;
14052;SDS011;7101;51.600;7.310;2023-04-06T00:52:33;16.08;;;10.88;;
14052;SDS011;7101;51.600;7.310;2023-04-06T00:54:59;18.38;;;11.88;;
14052;SDS011;7101;51.600;7.310;2023-04-06T00:57:27;17.38;;;12.43;;
14052;SDS011;7101;51.600;7.310;2023-04-06T00:59:55;18.17;;;12.35;;
14052;SDS011;7101;51.600;7.310;2023-04-06T01:02:23;19.50;;;11.65;;
14052;SDS011;7101;51.600;7.310;2023-04-06T01:04:50;21.73;;;11.82;;
14052;SDS011;7101;51.600;7.310;2023-04-06T01:07:17;17.02;;;11.60;;
14052;SDS011;7101;51.600;7.310;2023-04-06T01:09:45;19.75;;;12.45;;
14052;SDS011;7101;51.600;7.310;2023-04-06T01:12:12;16.50;;;11.45;;
14052;SDS011;7101;51.600;7.310;2023-04-06T01:14:40;15.05;;;11.57;;
14052;SDS011;7101;51.600;7.310;2023-04-06T01:17:07;17.80;;;11.95;;
14052;SDS011;7101;51.600;7.310;2023-04-06T01:19:35;17.55;;;12.05;;
14052;SDS011;7101;51.600;7.310;2023-04-06T01:22:02;17.38;;;11.35;;
14052;SDS011;7101;51.600;7.310;2023-04-06T01:24:32;18.05;;;12.00;;
14052;SDS011;7101;51.600;7.310;2023-04-06T01:26:59;18.35;;;12.35;;
14052;SDS011;7101;51.600;7.310;2023-04-06T01:29:27;16.73;;;11.52;;
14052;SDS011;7101;51.600;7.310;2023-04-06T01:31:55;20.02;;;12.07;;
14052;SDS011;7101;51.600;7.310;2023-04-06T01:34:22;17.23;;;11.25;;
14052;SDS011;7101;51.600;7.310;2023-04-06T01:36:49;19.63;;;12.30;;
14052;SDS011;7101;51.600;7.310;2023-04-06T01:39:16;19.85;;;12.15;;
14052;SDS011;7101;51.600;7.310;2023-04-06T01:41:44;17.23;;;11.85;;
14052;SDS011;7101;51.600;7.310;2023-04-06T01:44:12;18.75;;;12.75;;
14052;SDS011;7101;51.600;7.310;2023-04-06T01:46:40;18.60;;;12.52;;
14052;SDS011;7101;51.600;7.310;2023-04-06T01:49:06;19.08;;;12.50;;
14052;SDS011;7101;51.600;7.310;2023-04-06T01:51:33;18.52;;;12.05;;
14052;SDS011;7101;51.600;7.310;2023-04-06T01:54:00;19.80;;;12.55;;
14052;SDS011;7101;51.600;7.310;2023-04-06T01:56:27;18.10;;;11.52;;
14052;SDS011;7101;51.600;7.310;2023-04-06T01:58:55;18.83;;;12.32;;
14052;SDS011;7101;51.600;7.310;2023-04-06T02:01:22;20.40;;;12.25;;
14052;SDS011;7101;51.600;7.310;2023-04-06T02:03:49;16.98;;;11.52;;
14052;SDS011;7101;51.600;7.310;2023-04-06T02:06:15;18.08;;;12.02;;
14052;SDS011;7101;51.600;7.310;2023-04-06T02:08:42;16.45;;;11.73;;
14052;SDS011;7101;51.600;7.310;2023-04-06T02:11:09;22.42;;;12.70;;
14052;SDS011;7101;51.600;7.310;2023-04-06T02:13:37;17.73;;;11.60;;
14052;SDS011;7101;51.600;7.310;2023-04-06T02:16:05;17.27;;;12.02;;
14052;SDS011;7101;51.600;7.310;2023-04-06T02:18:32;16.65;;;11.13;;
14052;SDS011;7101;51.600;7.310;2023-04-06T02:20:59;18.38;;;11.57;;
14052;SDS011;7101;51.600;7.310;2023-04-06T02:23:26;15.75;;;11.13;;
14052;SDS011;7101;51.600;7.310;2023-04-06T02:25:53;16.33;;;11.38;;
14052;SDS011;7101;51.600;7.310;2023-04-06T02:28:20;17.33;;;11.63;;
14052;SDS011;7101;51.600;7.310;2023-04-06T02:30:46;17.13;;;10.70;;
14052;SDS011;7101;51.600;7.310;2023-04-06T02:33:15;17.58;;;11.15;;
14052;SDS011;7101;51.600;7.310;2023-04-06T02:35:46;16.67;;;11.02;;
14052;SDS011;7101;51.600;7.310;2023-04-06T02:38:13;15.73;;;10.65;;
14052;SDS011;7101;51.600;7.310;2023-04-06T02:40:39;16.30;;;11.77;;
14052;SDS011;7101;51.600;7.310;2023-04-06T02:43:06;19.15;;;11.05;;
14052;SDS011;7101;51.600;7.310;2023-04-06T02:45:33;17.83;;;11.27;;
14052;SDS011;7101;51.600;7.310;2023-04-06T02:48:00;17.00;;;11.05;;
14052;SDS011;7101;51.600;7.310;2023-04-06T02:50:31;15.68;;;11.25;;
14052;SDS011;7101;51.600;7.310;2023-04-06T02:52:59;19.05;;;11.02;;
14052;SDS011;7101;51.600;7.310;2023-04-06T02:55:26;20.17;;;11.43;;
14052;SDS011;7101;51.600;7.310;2023-04-06T02:57:53;16.88;;;11.73;;
14052;SDS011;7101;51.600;7.310;2023-04-06T03:00:20;17.88;;;10.30;;
14052;SDS011;7101;51.600;7.310;2023-04-06T03:02:47;17.23;;;11.10;;
14052;SDS011;7101;51.600;7.310;2023-04-06T03:05:14;19.65;;;10.15;;
14052;SDS011;7101;51.600;7.310;2023-04-06T03:07:42;16.08;;;10.60;;
14052;SDS011;7101;51.600;7.310;2023-04-06T03:10:09;16.55;;;10.65;;
14052;SDS011;7101;51.600;7.310;2023-04-06T03:12:37;16.25;;;10.82;;
14052;SDS011;7101;51.600;7.310;2023-04-06T03:15:04;18.95;;;11.23;;
14052;SDS011;7101;51.600;7.310;2023-04-06T03:17:31;16.17;;;9.55;;
14052;SDS011;7101;51.600;7.310;2023-04-06T03:19:58;15.20;;;10.90;;
14052;SDS011;7101;51.600;7.310;2023-04-06T03:22:25;16.08;;;11.73;;
14052;SDS011;7101;51.600;7.310;2023-04-06T03:24:53;16.20;;;11.00;;
14052;SDS011;7101;51.600;7.310;2023-04-06T03:27:20;15.88;;;10.48;;
14052;SDS011;7101;51.600;7.310;2023-04-06T03:29:47;15.13;;;10.93;;
14052;SDS011;7101;51.600;7.310;2023-04-06T03:32:13;13.82;;;10.68;;
14052;SDS011;7101;51.600;7.310;2023-04-06T03:34:41;18.63;;;11.50;;
14052;SDS011;7101;51.600;7.310;2023-04-06T03:37:08;21.30;;;11.02;;
14052;SDS011;7101;51.600;7.310;2023-04-06T03:39:35;18.27;;;11.60;;
14052;SDS011;7101;51.600;7.310;2023-04-06T03:42:03;17.10;;;11.63;;
14052;SDS011;7101;51.600;7.310;2023-04-06T03:44:30;13.80;;;10.27;;
14052;SDS011;7101;51.600;7.310;2023-04-06T03:46:57;14.93;;;10.38;;
14052;SDS011;7101;51.600;7.310;2023-04-06T03:49:24;13.32;;;10.45;;
14052;SDS011;7101;51.600;7.310;2023-04-06T03:51:52;15.20;;;11.32;;
14052;SDS011;7101;51.600;7.310;2023-04-06T03:54:19;16.20;;;11.07;;
14052;SDS011;7101;51.600;7.310;2023-04-06T03:56:45;15.60;;;10.50;;
14052;SDS011;7101;51.600;7.310;2023-04-06T03:59:14;16.20;;;10.68;;
14052;SDS011;7101;51.600;7.310;2023-04-06T04:01:41;15.10;;;10.82;;
14052;SDS011;7101;51.600;7.310;2023-04-06T04:04:07;16.60;;;10.95;;
14052;SDS011;7101;51.600;7.310;2023-04-06T04:06:34;16.27;;;10.85;;
14052;SDS011;7101;51.600;7.310;2023-04-06T04:09:02;14.98;;;10.85;;
14052;SDS011;7101;51.600;7.310;2023-04-06T04:11:29;18.20;;;10.80;;
14052;SDS011;7101;51.600;7.310;2023-04-06T04:13:55;17.45;;;10.90;;
14052;SDS011;7101;51.600;7.310;2023-04-06T04:16:24;15.73;;;10.50;;
14052;SDS011;7101;51.600;7.310;2023-04-06T04:18:50;16.20;;;11.45;;
14052;SDS011;7101;51.600;7.310;2023-04-06T04:21:17;13.10;;;10.13;;
14052;SDS011;7101;51.600;7.310;2023-04-06T04:23:44;16.02;;;10.40;;
14052;SDS011;7101;51.600;7.310;2023-04-06T04:26:11;15.35;;;10.40;;
14052;SDS011;7101;51.600;7.310;2023-04-06T04:28:37;15.70;;;9.85;;
14052;SDS011;7101;51.600;7.310;2023-04-06T04:31:04;18.08;;;10.55;;
14052;SDS011;7101;51.600;7.310;2023-04-06T04:33:33;15.90;;;11.10;;
14052;SDS011;7101;51.600;7.310;2023-04-06T04:35:59;17.55;;;11.60;;
14052;SDS011;7101;51.600;7.310;2023-04-06T04:38:26;18.52;;;11.02;;
14052;SDS011;7101;51.600;7.310;2023-04-06T04:40:53;16.25;;;11.05;;
14052;SDS011;7101;51.600;7.310;2023-04-06T04:43:20;16.38;;;10.75;;
14052;SDS011;7101;51.600;7.310;2023-04-06T04:45:46;19.45;;;11.57;;
14052;SDS011;7101;51.600;7.310;2023-04-06T04:48:13;14.50;;;10.40;;
14052;SDS011;7101;51.600;7.310;2023-04-06T04:50:41;18.48;;;10.82;;
14052;SDS011;7101;51.600;7.310;2023-04-06T04:53:08;15.43;;;10.93;;
14052;SDS011;7101;51.600;7.310;2023-04-06T04:55:35;17.85;;;11.07;;
14052;SDS011;7101;51.600;7.310;2023-04-06T04:58:02;15.48;;;11.35;;
14052;SDS011;7101;51.600;7.310;2023-04-06T05:00:28;18.90;;;11.32;;
14052;SDS011;7101;51.600;7.310;2023-04-06T05:02:55;16.92;;;11.00;;
14052;SDS011;7101;51.600;7.310;2023-04-06T05:05:22;22.00;;;11.48;;
14052;SDS011;7101;51.600;7.310;2023-04-06T05:07:50;17.85;;;11.60;;
14052;SDS011;7101;51.600;7.310;2023-04-06T05:10:17;17.08;;;10.57;;
14052;SDS011;7101;51.600;7.310;2023-04-06T05:12:44;17.20;;;10.98;;
14052;SDS011;7101;51.600;7.310;2023-04-06T05:15:10;15.88;;;10.25;;
14052;SDS011;7101;51.600;7.310;2023-04-06T05:17:37;17.80;;;10.90;;
14052;SDS011;7101;51.600;7.310;2023-04-06T05:20:05;15.27;;;10.55;;
14052;SDS011;7101;51.600;7.310;2023-04-06T05:22:32;20.80;;;9.90;;
14052;SDS011;7101;51.600;7.310;2023-04-06T05:25:02;14.77;;;10.02;;
14052;SDS011;7101;51.600;7.310;2023-04-06T05:27:29;15.38;;;10.20;;
14052;SDS011;7101;51.600;7.310;2023-04-06T05:29:56;14.85;;;10.40;;
14052;SDS011;7101;51.600;7.310;2023-04-06T05:32:23;15.77;;;10.20;;
14052;SDS011;7101;51.600;7.310;2023-04-06T05:34:50;16.35;;;9.60;;
14052;SDS011;7101;51.600;7.310;2023-04-06T05:37:17;16.20;;;10.38;;
14052;SDS011;7101;51.600;7.310;2023-04-06T05:39:44;13.88;;;10.30;;
14052;SDS011;7101;51.600;7.310;2023-04-06T05:42:12;18.67;;;11.48;;
14052;SDS011;7101;51.600;7.310;2023-04-06T05:44:38;20.30;;;11.40;;
14052;SDS011;7101;51.600;7.310;2023-04-06T05:47:05;16.27;;;11.45;;
14052;SDS011;7101;51.600;7.310;2023-04-06T05:49:32;16.48;;;10.63;;
14052;SDS011;7101;51.600;7.310;2023-04-06T05:51:59;13.88;;;10.70;;
14052;SDS011;7101;51.600;7.310;2023-04-06T05:54:26;12.40;;;9.95;;
14052;SDS011;7101;51.600;7.310;2023-04-06T05:56:54;13.25;;;10.23;;
14052;SDS011;7101;51.600;7.310;2023-04-06T05:59:22;17.65;;;10.23;;
14052;SDS011;7101;51.600;7.310;2023-04-06T06:01:49;14.32;;;8.90;;
14052;SDS011;7101;51.600;7.310;2023-04-06T06:04:16;13.52;;;9.30;;
14052;SDS011;7101;51.600;7.310;2023-04-06T06:06:43;16.25;;;9.90;;
14052;SDS011;7101;51.600;7.310;2023-04-06T06:09:13;14.50;;;9.30;;
14052;SDS011;7101;51.600;7.310;2023-04-06T06:11:42;11.32;;;9.07;;
14052;SDS011;7101;51.600;7.310;2023-04-06T06:14:09;13.00;;;8.55;;
14052;SDS011;7101;51.600;7.310;2023-04-06T06:16:40;13.35;;;8.88;;
14052;SDS011;7101;51.600;7.310;2023-04-06T06:19:07;12.23;;;8.30;;
14052;SDS011;7101;51.600;7.310;2023-04-06T06:21:34;13.32;;;9.48;;
14052;SDS011;7101;51.600;7.310;2023-04-06T06:24:01;11.38;;;8.40;;
14052;SDS011;7101;51.600;7.310;2023-04-06T06:26:30;14.20;;;8.80;;
14052;SDS011;7101;51.600;7.310;2023-04-06T06:28:57;13.07;;;8.95;;
14052;SDS011;7101;51.600;7.310;2023-04-06T06:31:25;14.45;;;8.45;;
14052;SDS011;7101;51.600;7.310;2023-04-06T06:33:59;11.60;;;8.68;;
14052;SDS011;7101;51.600;7.310;2023-04-06T06:36:27;11.70;;;8.68;;
14052;SDS011;7101;51.600;7.310;2023-04-06T06:38:56;12.18;;;8.48;;
14052;SDS011;7101;51.600;7.310;2023-04-06T06:41:23;13.75;;;8.57;;
14052;SDS011;7101;51.600;7.310;2023-04-06T06:43:51;12.68;;;8.25;;
14052;SDS011;7101;51.600;7.310;2023-04-06T06:46:17;12.52;;;8.20;;
14052;SDS011;7101;51.600;7.310;2023-04-06T06:48:47;10.43;;;8.63;;
14052;SDS011;7101;51.600;7.310;2023-04-06T06:51:16;14.30;;;9.48;;
14052;SDS011;7101;51.600;7.310;2023-04-06T06:53:42;11.13;;;8.85;;
14052;SDS011;7101;51.600;7.310;2023-04-06T06:56:09;15.35;;;8.80;;
14052;SDS011;7101;51.600;7.310;2023-04-06T06:58:37;12.80;;;8.55;;
14052;SDS011;7101;51.600;7.310;2023-04-06T07:01:04;16.38;;;8.63;;
14052;SDS011;7101;51.600;7.310;2023-04-06T07:03:32;14.63;;;8.82;;
14052;SDS011;7101;51.600;7.310;2023-04-06T07:06:00;12.15;;;9.10;;
14052;SDS011;7101;51.600;7.310;2023-04-06T07:08:32;11.57;;;9.23;;
14052;SDS011;7101;51.600;7.310;2023-04-06T07:10:59;12.70;;;9.20;;
14052;SDS011;7101;51.600;7.310;2023-04-06T07:13:27;13.70;;;9.15;;
14052;SDS011;7101;51.600;7.310;2023-04-06T07:16:00;13.52;;;7.88;;
14052;SDS011;7101;51.600;7.310;2023-04-06T07:18:27;9.55;;;7.70;;
14052;SDS011;7101;51.600;7.310;2023-04-06T07:20:56;12.32;;;7.10;;
14052;SDS011;7101;51.600;7.310;2023-04-06T07:23:23;11.05;;;7.63;;
14052;SDS011;7101;51.600;7.310;2023-04-06T07:25:56;10.52;;;7.35;;
14052;SDS011;7101;51.600;7.310;2023-04-06T07:28:23;12.00;;;7.20;;
14052;SDS011;7101;51.600;7.310;2023-04-06T07:30:50;12.77;;;7.05;;
14052;SDS011;7101;51.600;7.310;2023-04-06T07:33:20;11.85;;;6.85;;
14052;SDS011;7101;51.600;7.310;2023-04-06T07:35:47;10.15;;;6.10;;
14052;SDS011;7101;51.600;7.310;2023-04-06T07:38:15;8.65;;;6.53;;
14052;SDS011;7101;51.600;7.310;2023-04-06T07:40:42;8.80;;;6.55;;
14052;SDS011;7101;51.600;7.310;2023-04-06T07:43:10;8.40;;;6.63;;
14052;SDS011;7101;51.600;7.310;2023-04-06T07:45:37;9.63;;;6.55;;
14052;SDS011;7101;51.600;7.310;2023-04-06T07:48:04;8.40;;;6.68;;
14052;SDS011;7101;51.600;7.310;2023-04-06T07:50:31;8.10;;;7.07;;
14052;SDS011;7101;51.600;7.310;2023-04-06T07:53:00;10.70;;;6.63;;
14052;SDS011;7101;51.600;7.310;2023-04-06T07:55:28;10.32;;;6.95;;
14052;SDS011;7101;51.600;7.310;2023-04-06T07:57:55;8.77;;;6.75;;
14052;SDS011;7101;51.600;7.310;2023-04-06T08:00:25;8.45;;;6.65;;
14052;SDS011;7101;51.600;7.310;2023-04-06T08:02:51;9.32;;;7.03;;
14052;SDS011;7101;51.600;7.310;2023-04-06T08:05:20;10.18;;;7.30;;
14052;SDS011;7101;51.600;7.310;2023-04-06T08:07:48;10.00;;;6.80;;
14052;SDS011;7101;51.600;7.310;2023-04-06T08:10:15;10.88;;;7.57;;
14052;SDS011;7101;51.600;7.310;2023-04-06T08:12:42;10.02;;;7.22;;
14052;SDS011;7101;51.600;7.310;2023-04-06T08:15:09;10.50;;;7.28;;
14052;SDS011;7101;51.600;7.310;2023-04-06T08:17:39;11.63;;;8.00;;
14052;SDS011;7101;51.600;7.310;2023-04-06T08:20:07;11.20;;;7.80;;
14052;SDS011;7101;51.600;7.310;2023-04-06T08:22:36;10.75;;;7.63;;
14052;SDS011;7101;51.600;7.310;2023-04-06T08:25:05;12.38;;;7.80;;
14052;SDS011;7101;51.600;7.310;2023-04-06T08:27:32;10.32;;;7.97;;
14052;SDS011;7101;51.600;7.310;2023-04-06T08:29:59;14.13;;;7.50;;
14052;SDS011;7101;51.600;7.310;2023-04-06T08:32:26;11.32;;;7.85;;
14052;SDS011;7101;51.600;7.310;2023-04-06T08:34:55;9.45;;;7.70;;
14052;SDS011;7101;51.600;7.310;2023-04-06T08:37:22;11.55;;;7.60;;
14052;SDS011;7101;51.600;7.310;2023-04-06T08:39:49;11.70;;;8.20;;
14052;SDS011;7101;51.600;7.310;2023-04-06T08:42:18;9.45;;;8.00;;
14052;SDS011;7101;51.600;7.310;2023-04-06T08:44:47;10.50;;;8.45;;
14052;SDS011;7101;51.600;7.310;2023-04-06T08:47:18;11.35;;;8.88;;
14052;SDS011;7101;51.600;7.310;2023-04-06T08:49:47;9.77;;;8.02;;
14052;SDS011;7101;51.600;7.310;2023-04-06T08:52:17;10.63;;;8.45;;
14052;SDS011;7101;51.600;7.310;2023-04-06T08:54:45;11.70;;;9.40;;
14052;SDS011;7101;51.600;7.310;2023-04-06T08:57:15;10.98;;;9.02;;
14052;SDS011;7101;51.600;7.310;2023-04-06T08:59:42;9.93;;;8.15;;
14052;SDS011;7101;51.600;7.310;2023-04-06T09:02:11;11.30;;;8.55;;
14052;SDS011;7101;51.600;7.310;2023-04-06T09:04:43;12.15;;;9.23;;
14052;SDS011;7101;51.600;7.310;2023-04-06T09:07:12;11.15;;;9.10;;
14052;SDS011;7101;51.600;7.310;2023-04-06T09:09:40;14.07;;;10.70;;
14052;SDS011;7101;51.600;7.310;2023-04-06T09:12:21;11.88;;;9.90;;
14052;SDS011;7101;51.600;7.310;2023-04-06T09:14:49;13.15;;;10.95;;
14052;SDS011;7101;51.600;7.310;2023-04-06T09:17:21;12.27;;;10.52;;
14052;SDS011;7101;51.600;7.310;2023-04-06T09:19:48;13.13;;;10.75;;
14052;SDS011;7101;51.600;7.310;2023-04-06T09:22:16;12.68;;;10.75;;
14052;SDS011;7101;51.600;7.310;2023-04-06T09:24:46;13.20;;;11.15;;
14052;SDS011;7101;51.600;7.310;2023-04-06T09:27:14;13.93;;;10.45;;
14052;SDS011;7101;51.600;7.310;2023-04-06T09:29:44;13.45;;;10.02;;
14052;SDS011;7101;51.600;7.310;2023-04-06T09:32:12;13.80;;;10.73;;
14052;SDS011;7101;51.600;7.310;2023-04-06T09:34:41;13.82;;;10.55;;
14052;SDS011;7101;51.600;7.310;2023-04-06T09:37:14;12.98;;;10.95;;
14052;SDS011;7101;51.600;7.310;2023-04-06T09:39:41;14.73;;;10.23;;
14052;SDS011;7101;51.600;7.310;2023-04-06T09:42:12;12.82;;;10.50;;
14052;SDS011;7101;51.600;7.310;2023-04-06T09:44:51;13.77;;;10.38;;
14052;SDS011;7101;51.600;7.310;2023-04-06T09:47:18;14.32;;;11.13;;
14052;SDS011;7101;51.600;7.310;2023-04-06T09:49:46;13.07;;;10.25;;
14052;SDS011;7101;51.600;7.310;2023-04-06T09:52:17;13.13;;;10.20;;
14052;SDS011;7101;51.600;7.310;2023-04-06T09:54:46;14.73;;;10.80;;
14052;SDS011;7101;51.600;7.310;2023-04-06T09:57:19;12.68;;;9.18;;
14052;SDS011;7101;51.600;7.310;2023-04-06T09:59:53;12.45;;;9.55;;
14052;SDS011;7101;51.600;7.310;2023-04-06T10:02:31;12.48;;;10.10;;
14052;SDS011;7101;51.600;7.310;2023-04-06T10:05:05;11.52;;;9.40;;
14052;SDS011;7101;51.600;7.310;2023-04-06T10:07:36;13.10;;;9.82;;
14052;SDS011;7101;51.600;7.310;2023-04-06T10:10:03;12.82;;;9.43;;
14052;SDS011;7101;51.600;7.310;2023-04-06T10:12:35;10.95;;;8.82;;
14052;SDS011;7101;51.600;7.310;2023-04-06T10:15:05;15.63;;;9.82;;
14052;SDS011;7101;51.600;7.310;2023-04-06T10:17:33;13.48;;;9.95;;
14052;SDS011;7101;51.600;7.310;2023-04-06T10:20:02;13.52;;;10.50;;
14052;SDS011;7101;51.600;7.310;2023-04-06T10:22:35;15.93;;;11.23;;
14052;SDS011;7101;51.600;7.310;2023-04-06T10:25:07;18.92;;;11.65;;
14052;SDS011;7101;51.600;7.310;2023-04-06T10:27:36;15.38;;;11.85;;
14052;SDS011;7101;51.600;7.310;2023-04-06T10:30:10;15.32;;;11.20;;
14052;SDS011;7101;51.600;7.310;2023-04-06T10:32:38;14.63;;;11.02;;
14052;SDS011;7101;51.600;7.310;2023-04-06T10:35:06;15.82;;;12.00;;
14052;SDS011;7101;51.600;7.310;2023-04-06T10:37:46;16.45;;;12.55;;
14052;SDS011;7101;51.600;7.310;2023-04-06T10:40:19;15.85;;;11.85;;
14052;SDS011;7101;51.600;7.310;2023-04-06T10:42:53;21.35;;;12.63;;
14052;SDS011;7101;51.600;7.310;2023-04-06T10:45:24;16.00;;;12.15;;
14052;SDS011;7101;51.600;7.310;2023-04-06T10:47:53;16.38;;;12.57;;
14052;SDS011;7101;51.600;7.310;2023-04-06T10:50:21;18.80;;;12.38;;
14052;SDS011;7101;51.600;7.310;2023-04-06T10:52:58;18.27;;;11.98;;
14052;SDS011;7101;51.600;7.310;2023-04-06T10:55:26;14.77;;;12.15;;
14052;SDS011;7101;51.600;7.310;2023-04-06T10:57:56;15.65;;;12.10;;
14052;SDS011;7101;51.600;7.310;2023-04-06T11:00:23;15.38;;;11.82;;
14052;SDS011;7101;51.600;7.310;2023-04-06T11:02:50;17.90;;;12.20;;
14052;SDS011;7101;51.600;7.310;2023-04-06T11:05:18;14.60;;;11.73;;
14052;SDS011;7101;51.600;7.310;2023-04-06T11:07:46;15.90;;;11.85;;
14052;SDS011;7101;51.600;7.310;2023-04-06T11:10:20;15.18;;;11.80;;
14052;SDS011;7101;51.600;7.310;2023-04-06T11:12:52;15.63;;;12.35;;
14052;SDS011;7101;51.600;7.310;2023-04-06T11:15:21;18.05;;;12.30;;
14052;SDS011;7101;51.600;7.310;2023-04-06T11:17:48;15.73;;;12.50;;
14052;SDS011;7101;51.600;7.310;2023-04-06T11:20:15;20.30;;;12.32;;
14052;SDS011;7101;51.600;7.310;2023-04-06T11:22:47;14.52;;;11.63;;
14052;SDS011;7101;51.600;7.310;2023-04-06T11:25:15;15.02;;;10.63;;
14052;SDS011;7101;51.600;7.310;2023-04-06T11:27:42;17.33;;;11.30;;
14052;SDS011;7101;51.600;7.310;2023-04-06T11:30:12;13.35;;;11.18;;
14052;SDS011;7101;51.600;7.310;2023-04-06T11:32:43;15.55;;;11.05;;
14052;SDS011;7101;51.600;7.310;2023-04-06T11:35:14;13.63;;;11.18;;
14052;SDS011;7101;51.600;7.310;2023-04-06T11:37:48;14.23;;;11.45;;
14052;SDS011;7101;51.600;7.310;2023-04-06T11:40:20;13.05;;;10.43;;
14052;SDS011;7101;51.600;7.310;2023-04-06T11:42:51;13.77;;;11.38;;
14052;SDS011;7101;51.600;7.310;2023-04-06T11:45:18;13.55;;;11.05;;
14052;SDS011;7101;51.600;7.310;2023-04-06T11:47:54;14.60;;;11.85;;
14052;SDS011;7101;51.600;7.310;2023-04-06T11:50:24;15.00;;;12.82;;
14052;SDS011;7101;51.600;7.310;2023-04-06T11:52:57;15.57;;;12.52;;
14052;SDS011;7101;51.600;7.310;2023-04-06T11:55:25;16.00;;;12.60;;
14052;SDS011;7101;51.600;7.310;2023-04-06T11:57:53;20.98;;;13.50;;
14052;SDS011;7101;51.600;7.310;2023-04-06T12:00:20;16.55;;;13.60;;
14052;SDS011;7101;51.600;7.310;2023-04-06T12:02:48;17.40;;;14.27;;
14052;SDS011;7101;51.600;7.310;2023-04-06T12:05:15;20.23;;;13.68;;
14052;SDS011;7101;51.600;7.310;2023-04-06T12:07:42;23.05;;;14.75;;
14052;SDS011;7101;51.600;7.310;2023-04-06T12:10:09;22.70;;;15.68;;
14052;SDS011;7101;51.600;7.310;2023-04-06T12:12:36;19.67;;;15.40;;
14052;SDS011;7101;51.600;7.310;2023-04-06T12:15:04;18.25;;;15.40;;
14052;SDS011;7101;51.600;7.310;2023-04-06T12:17:32;20.60;;;15.85;;
14052;SDS011;7101;51.600;7.310;2023-04-06T12:20:01;19.98;;;15.55;;
14052;SDS011;7101;51.600;7.310;2023-04-06T12:22:30;21.42;;;14.73;;
14052;SDS011;7101;51.600;7.310;2023-04-06T12:24:57;19.52;;;14.30;;
14052;SDS011;7101;51.600;7.310;2023-04-06T12:27:26;18.00;;;14.15;;
14052;SDS011;7101;51.600;7.310;2023-04-06T12:29:53;18.90;;;14.32;;
14052;SDS011;7101;51.600;7.310;2023-04-06T12:32:20;20.33;;;15.38;;
14052;SDS011;7101;51.600;7.310;2023-04-06T12:34:47;16.75;;;13.65;;
14052;SDS011;7101;51.600;7.310;2023-04-06T12:37:15;19.00;;;14.38;;
14052;SDS011;7101;51.600;7.310;2023-04-06T12:39:42;17.15;;;13.85;;
14052;SDS011;7101;51.600;7.310;2023-04-06T12:42:11;15.48;;;12.23;;
14052;SDS011;7101;51.600;7.310;2023-04-06T12:44:39;15.85;;;12.30;;
14052;SDS011;7101;51.600;7.310;2023-04-06T12:47:07;14.85;;;12.60;;
14052;SDS011;7101;51.600;7.310;2023-04-06T12:49:37;17.20;;;12.70;;
14052;SDS011;7101;51.600;7.310;2023-04-06T12:52:04;15.10;;;12.52;;
14052;SDS011;7101;51.600;7.310;2023-04-06T12:54:34;16.48;;;12.38;;
14052;SDS011;7101;51.600;7.310;2023-04-06T12:57:02;16.83;;;10.65;;
14052;SDS011;7101;51.600;7.310;2023-04-06T12:59:30;12.80;;;10.88;;
14052;SDS011;7101;51.600;7.310;2023-04-06T13:02:00;14.57;;;10.65;;
14052;SDS011;7101;51.600;7.310;2023-04-06T13:04:27;15.50;;;11.05;;
14052;SDS011;7101;51.600;7.310;2023-04-06T13:06:55;14.48;;;10.68;;
14052;SDS011;7101;51.600;7.310;2023-04-06T13:09:22;12.70;;;10.48;;
14052;SDS011;7101;51.600;7.310;2023-04-06T13:11:52;16.20;;;11.02;;
14052;SDS011;7101;51.600;7.310;2023-04-06T13:14:20;14.43;;;10.85;;
14052;SDS011;7101;51.600;7.310;2023-04-06T13:16:48;19.75;;;11.02;;
14052;SDS011;7101;51.600;7.310;2023-04-06T13:19:16;13.13;;;11.30;;
14052;SDS011;7101;51.600;7.310;2023-04-06T13:21:44;12.85;;;10.60;;
14052;SDS011;7101;51.600;7.310;2023-04-06T13:24:12;15.50;;;11.80;;
14052;SDS011;7101;51.600;7.310;2023-04-06T13:26:39;14.95;;;11.50;;
14052;SDS011;7101;51.600;7.310;2023-04-06T13:29:07;15.02;;;11.40;;
14052;SDS011;7101;51.600;7.310;2023-04-06T13:31:36;19.30;;;12.32;;
14052;SDS011;7101;51.600;7.310;2023-04-06T13:34:04;14.85;;;12.32;;
14052;SDS011;7101;51.600;7.310;2023-04-06T13:36:30;18.42;;;12.82;;
14052;SDS011;7101;51.600;7.310;2023-04-06T13:38:58;19.48;;;12.88;;
14052;SDS011;7101;51.600;7.310;2023-04-06T13:41:25;17.13;;;14.05;;
14052;SDS011;7101;51.600;7.310;2023-04-06T13:43:53;17.10;;;12.82;;
14052;SDS011;7101;51.600;7.310;2023-04-06T13:46:21;15.10;;;10.45;;
14052;SDS011;7101;51.600;7.310;2023-04-06T13:48:49;15.80;;;9.40;;
14052;SDS011;7101;51.600;7.310;2023-04-06T13:51:16;12.95;;;9.98;;
14052;SDS011;7101;51.600;7.310;2023-04-06T13:53:43;14.95;;;10.40;;
14052;SDS011;7101;51.600;7.310;2023-04-06T13:56:11;11.10;;;9.15;;
14052;SDS011;7101;51.600;7.310;2023-04-06T13:58:37;11.18;;;8.63;;
14052;SDS011;7101;51.600;7.310;2023-04-06T14:01:06;10.45;;;8.60;;
14052;SDS011;7101;51.600;7.310;2023-04-06T14:03:36;15.00;;;9.13;;
14052;SDS011;7101;51.600;7.310;2023-04-06T14:06:09;11.55;;;8.60;;
14052;SDS011;7101;51.600;7.310;2023-04-06T14:08:38;12.85;;;10.10;;
14052;SDS011;7101;51.600;7.310;2023-04-06T14:11:06;14.18;;;10.50;;
14052;SDS011;7101;51.600;7.310;2023-04-06T14:13:36;13.02;;;9.73;;
14052;SDS011;7101;51.600;7.310;2023-04-06T14:16:09;11.73;;;9.38;;
14052;SDS011;7101;51.600;7.310;2023-04-06T14:18:38;13.48;;;9.02;;
14052;SDS011;7101;51.600;7.310;2023-04-06T14:21:07;14.98;;;9.63;;
14052;SDS011;7101;51.600;7.310;2023-04-06T14:23:41;13.23;;;9.90;;
14052;SDS011;7101;51.600;7.310;2023-04-06T14:26:11;13.60;;;10.02;;
14052;SDS011;7101;51.600;7.310;2023-04-06T14:28:39;15.05;;;10.13;;
14052;SDS011;7101;51.600;7.310;2023-04-06T14:31:13;11.80;;;9.25;;
14052;SDS011;7101;51.600;7.310;2023-04-06T14:33:42;14.00;;;10.68;;
14052;SDS011;7101;51.600;7.310;2023-04-06T14:36:09;13.57;;;10.57;;
14052;SDS011;7101;51.600;7.310;2023-04-06T14:38:38;15.63;;;10.57;;
14052;SDS011;7101;51.600;7.310;2023-04-06T14:41:06;14.23;;;11.32;;
14052;SDS011;7101;51.600;7.310;2023-04-06T14:43:33;15.50;;;11.73;;